Time;durP1;ratioP1;P1;durP2;ratioP2;P2;SDS_P1;SDS_P2;PMS_P1;PMS_P2;Temp;Humidity;BMP_temperature;BMP_pressure;BME280_temperature;BME280_humidity;BME280_pressure;Samples;Min_cycle;Max_cycle;Signal;HPM_P1;HPM_P2
2021/04/13 00:01:26;;;;;;;10.50;6.58;;;;;;;4.91;70.67;101358.48;1720219;81;26592;-74
2021/04/13 00:04:10;;;;;;;6.58;4.97;;;;;;;4.91;70.34;101354.51;1748698;81;25821;-73
2021/04/13 00:06:51;;;;;;;8.50;5.92;;;;;;;4.91;70.26;101358.48;1722172;81;25829;-74
2021/04/13 00:09:32;;;;;;;5.97;5.22;;;;;;;4.91;69.97;101352.33;1723904;81;26179;-74
2021/04/13 00:12:03;;;;;;;6.28;5.67;;;;;;;4.91;69.98;101354.98;1721306;81;25647;-74
2021/04/13 00:14:45;;;;;;;4.75;3.92;;;;;;;4.90;69.67;101351.99;1747960;81;28110;-73
2021/04/13 00:17:17;;;;;;;5.85;4.78;;;;;;;4.90;69.90;101354.65;1732582;81;25897;-74
2021/04/13 00:20:11;;;;;;;6.17;5.40;;;;;;;4.86;69.56;101358.52;1722048;81;26448;-74
2021/04/13 00:22:40;;;;;;;6.95;4.35;;;;;;;4.82;69.71;101351.79;1748649;81;25785;-74
2021/04/13 00:25:12;;;;;;;5.45;4.67;;;;;;;4.81;69.49;101360.73;1705478;81;25778;-74
2021/04/13 00:27:40;;;;;;;6.65;4.30;;;;;;;4.80;69.32;101363.88;1706754;81;28109;-74
2021/04/13 00:30:12;;;;;;;7.45;3.85;;;;;;;4.81;69.17;101361.59;1726242;81;25849;-73
2021/04/13 00:33:00;;;;;;;6.00;3.50;;;;;;;4.79;68.40;101363.50;1749266;81;25827;-73
2021/04/13 00:35:35;;;;;;;6.00;3.37;;;;;;;4.78;68.44;101365.81;1745508;81;26102;-73
2021/04/13 00:38:30;;;;;;;4.00;3.60;;;;;;;4.79;68.67;101378.09;1672811;81;26150;-74
2021/04/13 00:41:11;;;;;;;6.08;3.90;;;;;;;4.77;67.99;101359.33;1714570;81;28540;-74
2021/04/13 00:43:48;;;;;;;4.40;3.60;;;;;;;4.74;67.95;101365.73;1717436;81;26102;-73
2021/04/13 00:46:21;;;;;;;5.55;4.10;;;;;;;4.73;68.06;101358.72;1739122;81;26402;-73
2021/04/13 00:48:50;;;;;;;4.22;3.62;;;;;;;4.72;68.11;101359.71;1712721;81;26211;-74
2021/04/13 00:51:31;;;;;;;4.08;2.87;;;;;;;4.75;68.18;101363.92;1736816;81;26062;-74
2021/04/13 00:54:05;;;;;;;4.20;3.80;;;;;;;4.77;68.28;101365.95;1740914;81;28289;-74
2021/04/13 00:56:35;;;;;;;5.05;3.52;;;;;;;4.75;68.20;101361.27;1736787;81;26088;-73
2021/04/13 00:59:18;;;;;;;5.05;3.52;;;;;;;4.76;68.37;101365.11;1704694;81;25803;-73
2021/04/13 01:02:03;;;;;;;6.62;4.10;;;;;;;4.78;68.46;101368.95;1719235;81;26082;-73
2021/04/13 01:04:40;;;;;;;4.78;3.95;;;;;;;4.79;68.45;101371.97;1714385;81;27315;-74
2021/04/13 01:07:18;;;;;;;4.30;3.85;;;;;;;4.77;68.75;101371.27;1719619;81;26987;-73
2021/04/13 01:09:50;;;;;;;5.87;3.30;;;;;;;4.71;68.72;101377.91;1719437;81;25378;-73
2021/04/13 01:12:26;;;;;;;4.72;3.67;;;;;;;4.65;68.91;101373.13;1694998;81;25796;-74
2021/04/13 01:14:55;;;;;;;3.60;3.30;;;;;;;4.62;68.84;101379.53;1716595;81;25898;-74
2021/04/13 01:17:25;;;;;;;4.97;2.90;;;;;;;4.60;69.02;101373.52;1743244;81;25747;-73
2021/04/13 01:20:15;;;;;;;4.75;3.45;;;;;;;4.60;69.00;101368.69;1715615;82;27423;-73
2021/04/13 01:25:39;;;;;;;3.87;2.83;;;;;;;4.54;68.81;101384.66;1688714;83;25815;-74
2021/04/13 01:28:15;;;;;;;5.78;3.00;;;;;;;4.55;68.79;101383.70;1738790;81;26190;-74
2021/04/13 01:31:06;;;;;;;3.95;2.95;;;;;;;4.53;68.47;101389.59;1678378;82;25874;-74
2021/04/13 01:33:51;;;;;;;3.95;2.45;;;;;;;4.52;68.51;101393.23;1697337;83;27546;-73
2021/04/13 01:36:27;;;;;;;4.72;2.85;;;;;;;4.52;68.45;101389.25;1730998;81;25863;-73
2021/04/13 01:39:13;;;;;;;7.47;3.42;;;;;;;4.53;68.35;101385.61;1727682;82;25912;-74
2021/04/13 01:44:32;;;;;;;4.47;3.20;;;;;;;4.50;68.44;101385.89;1732411;81;26061;-74
2021/04/13 01:47:02;;;;;;;3.55;3.02;;;;;;;4.51;68.60;101383.58;1757078;80;27565;-74
2021/04/13 01:49:34;;;;;;;6.45;3.10;;;;;;;4.50;68.65;101375.75;1744074;81;25932;-74
2021/04/13 01:52:02;;;;;;;3.30;3.00;;;;;;;4.51;68.62;101378.78;1722004;81;25780;-74
2021/04/13 01:54:29;;;;;;;5.95;3.25;;;;;;;4.52;68.94;101371.16;1740518;80;26218;-74
2021/04/13 01:57:05;;;;;;;4.22;3.05;;;;;;;4.52;68.89;101375.98;1728153;81;25880;-73
2021/04/13 01:59:40;;;;;;;5.67;3.58;;;;;;;4.50;69.07;101373.95;1752939;81;27523;-73
2021/04/13 02:02:27;;;;;;;6.62;3.65;;;;;;;4.45;69.30;101377.46;1727951;81;26311;-72
2021/04/13 02:05:03;;;;;;;4.97;3.80;;;;;;;4.40;69.52;101369.07;1705045;81;25776;-74
2021/04/13 02:10:31;;;;;;;5.42;3.98;;;;;;;4.39;70.19;101366.52;1826853;77;26380;-74
2021/04/13 02:13:03;;;;;;;8.38;4.37;;;;;;;4.33;70.39;101355.95;1794904;78;26073;-73
2021/04/13 02:15:54;;;;;;;7.08;4.05;;;;;;;4.32;70.38;101364.05;1765659;79;27546;-73
2021/04/13 02:18:41;;;;;;;;;;;;;;;4.28;71.10;101363.44;1796503;78;26327;-73
2021/04/13 02:21:17;;;;;;;7.87;4.50;;;;;;;4.24;71.34;101364.67;1776387;78;25567;-73
2021/04/13 02:23:51;;;;;;;9.03;5.47;;;;;;;4.22;71.11;101375.89;1760937;79;25915;-73
2021/04/13 02:26:20;;;;;;;6.05;4.37;;;;;;;4.23;71.29;101379.39;1799485;78;26579;-73
2021/04/13 02:28:50;;;;;;;7.50;4.75;;;;;;;4.22;71.52;101376.37;1790404;78;27541;-73
2021/04/13 02:31:47;;;;;;;14.25;6.22;;;;;;;4.21;71.80;101378.20;1792019;78;25710;-74
2021/04/13 02:34:14;;;;;;;9.70;6.10;;;;;;;4.19;71.62;101380.62;1766101;78;26060;-73
2021/04/13 02:36:49;;;;;;;7.55;4.80;;;;;;;4.17;71.78;101380.72;1766765;79;25765;-74
2021/04/13 02:39:24;;;;;;;7.80;5.47;;;;;;;4.17;72.11;101388.67;1765296;78;25532;-74
2021/04/13 02:42:04;;;;;;;9.33;6.50;;;;;;;4.17;71.91;101390.52;1771792;79;26575;-74
2021/04/13 02:44:32;;;;;;;8.15;4.58;;;;;;;4.16;71.67;101381.70;1763415;80;26369;-74
2021/04/13 02:47:03;;;;;;;6.90;5.00;;;;;;;4.16;72.40;101381.70;1710159;81;25913;-74
2021/04/13 02:49:32;;;;;;;11.60;5.37;;;;;;;4.13;72.12;101387.25;1696576;81;25792;-75
2021/04/13 02:52:04;;;;;;;6.72;5.40;;;;;;;4.12;72.26;101384.73;1724540;81;25846;-74
2021/04/13 02:54:46;;;;;;;13.58;6.05;;;;;;;4.11;72.66;101385.69;1709425;82;27825;-74
2021/04/13 02:57:24;;;;;;;11.33;6.30;;;;;;;4.10;72.82;101390.65;1735175;82;25830;-74
2021/04/13 02:59:59;;;;;;;7.50;4.97;;;;;;;4.08;72.95;101387.28;1731505;81;25816;-73
2021/04/13 03:02:43;;;;;;;7.83;5.65;;;;;;;4.05;73.65;101391.02;1717051;80;26055;-74
2021/04/13 03:05:25;;;;;;;11.78;5.30;;;;;;;4.02;73.20;101388.61;1707045;81;25831;-75
2021/04/13 03:07:53;;;;;;;10.78;5.95;;;;;;;4.01;73.33;101387.42;1737066;82;27539;-73
2021/04/13 03:10:31;;;;;;;9.93;5.67;;;;;;;4.02;73.67;101383.30;1707709;82;25884;-75
2021/04/13 03:13:03;;;;;;;9.83;5.67;;;;;;;4.01;73.60;101379.47;1688468;83;25865;-74
2021/04/13 03:15:34;;;;;;;12.35;5.95;;;;;;;3.97;74.44;101383.34;1700823;83;25759;-74
2021/04/13 03:18:06;;;;;;;9.85;5.87;;;;;;;3.94;73.96;101389.72;1691089;81;25932;-74
2021/04/13 03:20:38;;;;;;;8.00;4.67;;;;;;;3.89;74.95;101379.50;1724294;81;26745;-74
2021/04/13 03:23:07;;;;;;;8.60;6.15;;;;;;;3.86;75.20;101389.52;1713321;81;25771;-74
2021/04/13 03:25:40;;;;;;;10.32;5.47;;;;;;;3.84;75.11;101389.65;1707148;81;25819;-74
2021/04/13 03:28:10;;;;;;;8.05;5.15;;;;;;;3.84;76.27;101394.95;1739671;81;25856;-74
2021/04/13 03:30:41;;;;;;;11.15;5.33;;;;;;;3.80;75.78;101399.30;1690532;81;25879;-74
2021/04/13 03:33:19;;;;;;;8.70;5.15;;;;;;;3.78;76.23;101399.42;1714034;83;28382;-73
2021/04/13 03:35:47;;;;;;;8.15;4.47;;;;;;;3.76;75.78;101403.98;1714985;81;26398;-73
2021/04/13 03:38:19;;;;;;;7.47;5.45;;;;;;;3.76;76.36;101407.13;1700263;81;26486;-73
2021/04/13 03:40:49;;;;;;;9.18;5.62;;;;;;;3.72;77.33;101401.73;1712606;81;25841;-74
2021/04/13 03:43:23;;;;;;;6.03;5.05;;;;;;;3.69;76.62;101400.16;1716203;81;25804;-73
2021/04/13 03:45:55;;;;;;;7.35;4.67;;;;;;;3.69;76.99;101396.19;1708603;83;27438;-74
2021/04/13 03:48:27;;;;;;;8.38;4.85;;;;;;;3.67;76.69;101402.09;1707900;82;25705;-73
2021/04/13 03:51:13;;;;;;;10.68;5.37;;;;;;;3.65;77.00;101400.52;1709879;82;26023;-74
2021/04/13 03:53:45;;;;;;;6.47;4.12;;;;;;;3.65;77.01;101400.05;1705078;82;25787;-73
2021/04/13 03:56:18;;;;;;;7.62;4.30;;;;;;;3.63;77.30;101399.81;1690081;82;26471;-73
2021/04/13 03:58:49;;;;;;;6.03;3.20;;;;;;;3.57;77.29;101397.14;1711196;82;28247;-73
2021/04/13 04:01:21;;;;;;;5.25;3.40;;;;;;;3.53;77.82;101403.66;1705082;82;25847;-74
2021/04/13 04:04:05;;;;;;;5.65;3.20;;;;;;;3.46;77.06;101409.11;1714819;81;25879;-73
2021/04/13 04:06:49;;;;;;;3.17;2.67;;;;;;;3.45;77.20;101410.53;1714218;81;25834;-74
2021/04/13 04:09:17;;;;;;;3.00;2.05;;;;;;;3.43;76.91;101419.92;1716805;81;26076;-74
2021/04/13 04:11:46;;;;;;;6.15;2.22;;;;;;;3.43;76.92;101421.25;1689279;82;27534;-74
2021/04/13 04:14:20;;;;;;;3.65;2.02;;;;;;;3.40;76.83;101418.02;1681942;82;25886;-74
2021/04/13 04:16:49;;;;;;;5.67;2.02;;;;;;;3.37;76.50;101436.30;1677760;82;25565;-74
2021/04/13 04:19:23;;;;;;;3.77;1.70;;;;;;;3.37;76.54;101446.05;1703669;82;25777;-74
2021/04/13 04:22:02;;;;;;;4.40;1.67;;;;;;;3.36;76.59;101434.60;1700375;82;26212;-74
2021/04/13 04:24:39;;;;;;;2.33;1.47;;;;;;;3.35;76.37;101441.35;1711566;82;28023;-74
2021/04/13 04:27:34;;;;;;;3.40;1.32;;;;;;;3.32;76.71;101438.93;1762336;79;25914;-74
2021/04/13 04:30:13;;;;;;;3.62;1.77;;;;;;;3.29;76.77;101439.19;1763359;79;25752;-74
2021/04/13 04:32:44;;;;;;;2.20;1.57;;;;;;;3.27;76.69;101443.29;1760157;79;25439;-74
2021/04/13 04:35:33;;;;;;;1.42;1.20;;;;;;;3.25;77.11;101445.69;1786546;79;26392;-73
2021/04/13 04:38:26;;;;;;;2.47;1.10;;;;;;;3.24;76.80;101445.31;1752960;79;28258;-74
2021/04/13 04:41:04;;;;;;;3.58;1.22;;;;;;;3.21;77.00;101458.81;1783240;79;25862;-74
2021/04/13 04:43:45;;;;;;;2.45;1.17;;;;;;;3.15;77.17;101462.75;1780465;79;25917;-73
2021/04/13 04:46:39;;;;;;;3.67;1.30;;;;;;;3.12;77.33;101465.66;1784676;79;25790;-74
2021/04/13 04:49:14;;;;;;;2.08;1.55;;;;;;;3.11;77.22;101471.89;1756238;80;25883;-73
2021/04/13 04:51:43;;;;;;;2.08;1.32;;;;;;;3.06;77.99;101471.39;1693319;81;27653;-74
2021/04/13 04:54:10;;;;;;;5.97;1.70;;;;;;;3.01;78.14;101477.06;1693991;83;26544;-74
2021/04/13 04:56:37;;;;;;;2.02;1.65;;;;;;;3.01;78.13;101477.06;1706774;82;25814;-74
2021/04/13 04:59:04;;;;;;;4.37;1.72;;;;;;;2.96;78.33;101475.23;1704707;82;25840;-74
2021/04/13 05:01:32;;;;;;;3.77;1.75;;;;;;;2.96;78.33;101479.68;1699974;82;25940;-74
2021/04/13 05:03:59;;;;;;;3.22;2.10;;;;;;;2.96;78.93;101475.70;1714506;81;27536;-74
2021/04/13 05:06:27;;;;;;;3.10;1.42;;;;;;;2.95;78.61;101483.30;1703769;81;25961;-74
2021/04/13 05:08:54;;;;;;;3.33;1.50;;;;;;;2.93;78.64;101484.72;1693968;80;25739;-74
2021/04/13 05:11:24;;;;;;;2.37;1.70;;;;;;;2.93;78.81;101482.08;1730772;80;26455;-74
2021/04/13 05:13:52;;;;;;;2.62;1.52;;;;;;;2.94;78.44;101483.77;1765227;80;26176;-76
2021/04/13 05:16:21;;;;;;;2.80;1.02;;;;;;;2.97;78.69;101488.81;1738764;80;27331;-76
2021/04/13 05:18:49;;;;;;;4.05;2.17;;;;;;;2.96;78.96;101486.30;1736674;80;26495;-76
2021/04/13 05:21:17;;;;;;;2.22;1.50;;;;;;;2.96;78.79;101494.23;1734625;81;25910;-76
2021/04/13 05:23:45;;;;;;;3.25;1.80;;;;;;;2.96;78.89;101498.20;1744804;81;25913;-76
2021/04/13 05:26:13;;;;;;;3.08;1.62;;;;;;;2.99;78.73;101504.09;1703119;81;25939;-76
2021/04/13 05:28:40;;;;;;;3.47;1.72;;;;;;;3.00;78.73;101499.18;1727131;82;28502;-77
2021/04/13 05:31:07;;;;;;;7.65;2.35;;;;;;;3.00;79.23;101490.39;1721066;82;25888;-75
2021/04/13 05:33:35;;;;;;;5.70;2.17;;;;;;;3.00;79.52;101496.53;1730188;81;25889;-73
2021/04/13 05:36:06;;;;;;;3.85;1.98;;;;;;;2.99;79.73;101490.86;1715786;82;25942;-73
2021/04/13 05:38:42;;;;;;;4.65;2.45;;;;;;;2.99;80.38;101490.05;1716324;82;25822;-74
2021/04/13 05:41:13;;;;;;;5.72;3.05;;;;;;;3.00;80.61;101489.92;1755498;81;27529;-74
2021/04/13 05:43:43;;;;;;;7.55;2.80;;;;;;;3.01;80.50;101488.97;1715954;81;25925;-74
2021/04/13 05:46:20;;;;;;;5.67;2.62;;;;;;;3.03;81.05;101480.91;1768668;80;25919;-73
2021/04/13 05:48:47;;;;;;;6.42;2.87;;;;;;;3.04;80.99;101487.87;1719598;81;25813;-74
2021/04/13 05:51:15;;;;;;;4.33;3.22;;;;;;;3.05;80.85;101490.89;1714194;82;26381;-74
2021/04/13 05:53:42;;;;;;;6.62;3.77;;;;;;;3.07;80.66;101503.53;1703158;81;27288;-74
2021/04/13 05:56:13;;;;;;;5.72;3.00;;;;;;;3.11;80.96;101500.54;1711353;81;25853;-74
2021/04/13 05:58:49;;;;;;;4.55;3.20;;;;;;;3.11;81.35;101497.89;1720995;82;25905;-74
2021/04/13 06:01:20;;;;;;;7.40;3.33;;;;;;;3.09;81.31;101492.34;1717761;82;26291;-74
2021/04/13 06:03:47;;;;;;;;;;;;;;;3.07;81.22;101503.06;1726874;81;26139;-74
2021/04/13 06:06:15;;;;;;;7.40;3.45;;;;;;;3.10;81.58;101508.09;1720211;81;27417;-74
2021/04/13 06:08:44;;;;;;;4.65;2.72;;;;;;;3.11;81.79;101510.27;1717816;81;26079;-74
2021/04/13 06:11:18;;;;;;;4.20;2.77;;;;;;;3.11;81.85;101516.42;1719984;81;25867;-74
2021/04/13 06:13:47;;;;;;;3.62;2.12;;;;;;;3.12;81.88;101522.56;1750081;81;25818;-74
2021/04/13 06:16:17;;;;;;;6.60;3.60;;;;;;;3.10;81.62;101521.33;1676241;82;26020;-75
2021/04/13 06:18:44;;;;;;;5.58;2.72;;;;;;;3.10;81.54;101520.52;1741332;81;28435;-74
2021/04/13 06:21:11;;;;;;;11.15;2.80;;;;;;;3.06;81.92;101525.17;1721883;82;25816;-74
2021/04/13 06:23:39;;;;;;;3.80;2.42;;;;;;;2.98;81.86;101533.33;1738507;81;25820;-74
2021/04/13 06:26:07;;;;;;;4.55;2.50;;;;;;;2.95;82.15;101540.20;1703465;82;26434;-74
2021/04/13 06:28:34;;;;;;;7.22;2.55;;;;;;;2.93;82.37;101542.11;1694638;81;26108;-74
2021/04/13 06:31:04;;;;;;;3.83;2.10;;;;;;;2.89;82.44;101540.16;1702416;81;28300;-75
2021/04/13 06:33:33;;;;;;;3.30;1.80;;;;;;;2.88;82.04;101549.08;1741774;81;25695;-74
2021/04/13 06:36:03;;;;;;;3.00;1.95;;;;;;;2.87;82.39;101555.78;1687184;81;25918;-74
2021/04/13 06:38:32;;;;;;;6.03;1.98;;;;;;;2.82;82.47;101555.30;1723035;81;25855;-74
2021/04/13 06:41:25;;;;;;;5.17;1.52;;;;;;;2.78;82.70;101560.45;1718049;81;25904;-74
2021/04/13 06:44:17;;;;;;;1.85;1.27;;;;;;;2.77;82.38;101566.22;1749374;81;27548;-74
2021/04/13 06:47:22;;;;;;;2.22;1.30;;;;;;;2.76;83.14;101565.84;1749903;81;25887;-74
2021/04/13 06:50:22;;;;;;;1.80;1.20;;;;;;;2.74;82.71;101561.14;1730923;81;25627;-74
2021/04/13 06:53:22;;;;;;;2.72;1.60;;;;;;;2.72;82.96;101576.28;1725933;81;26527;-74
2021/04/13 06:56:33;;;;;;;2.77;1.40;;;;;;;2.68;83.44;101572.65;1746115;81;25962;-74
2021/04/13 06:59:16;;;;;;;1.98;1.67;;;;;;;2.67;82.93;101580.23;1722357;81;28797;-74
2021/04/13 07:01:52;;;;;;;2.55;1.50;;;;;;;2.68;83.40;101584.08;1726571;81;25864;-74
2021/04/13 07:04:47;;;;;;;1.90;1.45;;;;;;;2.67;83.16;101580.23;1741905;80;25938;-75
2021/04/13 07:07:37;;;;;;;1.87;1.67;;;;;;;2.68;82.70;101577.47;1756451;80;25990;-74
2021/04/13 07:10:20;;;;;;;2.52;1.60;;;;;;;2.68;83.11;101580.58;1739481;80;26052;-74
2021/04/13 07:13:08;;;;;;;2.42;1.72;;;;;;;2.71;82.92;101582.55;1706394;81;27527;-74
2021/04/13 07:15:52;;;;;;;2.85;1.57;;;;;;;2.72;83.32;101591.30;1721952;81;25893;-74
2021/04/13 07:18:37;;;;;;;2.15;1.87;;;;;;;2.70;83.38;101595.39;1759565;80;25785;-74
2021/04/13 07:21:15;;;;;;;3.80;2.20;;;;;;;2.71;83.08;101597.09;1763454;80;25735;-74
2021/04/13 07:23:49;;;;;;;3.60;2.20;;;;;;;2.69;83.08;101596.37;1736799;81;26230;-73
2021/04/13 07:26:36;;;;;;;4.25;2.55;;;;;;;2.68;83.23;101604.39;1724920;81;27357;-73
2021/04/13 07:29:21;;;;;;;5.70;3.02;;;;;;;2.69;83.30;101605.63;1745291;81;26380;-73
2021/04/13 07:32:15;;;;;;;5.78;2.52;;;;;;;2.70;83.14;101608.62;1721002;82;25799;-73
2021/04/13 07:34:45;;;;;;;3.33;2.12;;;;;;;2.74;83.21;101607.44;1690956;82;25888;-74
2021/04/13 07:37:18;;;;;;;4.87;2.10;;;;;;;2.75;83.44;101613.58;1700680;81;25839;-73
2021/04/13 07:39:51;;;;;;;4.12;2.35;;;;;;;2.75;83.29;101618.40;1726600;81;28498;-74
2021/04/13 07:42:26;;;;;;;6.22;2.52;;;;;;;2.75;83.26;101614.43;1713100;82;26497;-74
2021/04/13 07:45:20;;;;;;;4.83;1.98;;;;;;;2.75;83.73;101619.72;1714077;81;26448;-74
2021/04/13 07:48:22;;;;;;;3.83;1.98;;;;;;;2.74;83.42;101621.98;1721604;81;26504;-74
2021/04/13 07:51:25;;;;;;;4.08;1.87;;;;;;;2.74;83.69;101623.78;1743554;81;25752;-73
2021/04/13 08:08:41;;;;;;;2.83;1.80;;;;;;;3.31;81.78;101637.17;1840437;77;25298;-73
2021/04/13 08:11:19;;;;;;;2.10;1.90;;;;;;;3.10;82.30;101633.83;1770062;79;26180;-73
2021/04/13 08:13:51;;;;;;;3.33;2.15;;;;;;;3.00;82.78;101639.45;1721547;81;28105;-73
2021/04/13 08:16:37;;;;;;;2.30;1.57;;;;;;;2.96;83.02;101645.93;1743327;79;25863;-73
2021/04/13 08:19:31;;;;;;;3.37;2.42;;;;;;;2.96;83.39;101640.64;1742514;79;25769;-73
2021/04/13 08:22:13;;;;;;;6.92;2.35;;;;;;;2.94;83.30;101639.91;1784618;79;25853;-74
2021/04/13 08:24:47;;;;;;;3.12;2.83;;;;;;;2.96;83.55;101638.46;1768847;79;26150;-73
2021/04/13 08:27:32;;;;;;;5.08;3.30;;;;;;;2.96;83.37;101643.75;1767865;79;28605;-73
2021/04/13 08:30:17;;;;;;;4.05;2.72;;;;;;;2.98;83.45;101636.08;1806584;78;25847;-73
2021/04/13 08:33:02;;;;;;;4.60;2.80;;;;;;;3.00;84.10;101639.45;1788437;79;25879;-74
2021/04/13 08:35:45;;;;;;;9.68;4.22;;;;;;;3.02;83.57;101638.86;1765373;79;26190;-73
2021/04/13 08:38:55;;;;;;;6.12;3.45;;;;;;;3.08;84.39;101642.37;1743108;79;26016;-73
2021/04/13 08:41:37;;;;;;;4.72;2.62;;;;;;;3.14;84.22;101647.20;1768029;78;27530;-73
2021/04/13 08:44:39;;;;;;;7.28;2.83;;;;;;;3.22;84.80;101641.36;1781674;78;26313;-73
2021/04/13 08:47:38;;;;;;;5.45;2.87;;;;;;;3.29;84.24;101641.74;1763674;78;26417;-73
2021/04/13 08:50:33;;;;;;;6.42;3.55;;;;;;;3.34;83.98;101640.42;1761014;78;25873;-73
2021/04/13 08:53:11;;;;;;;7.35;4.03;;;;;;;3.45;84.51;101635.64;1755484;80;26140;-74
2021/04/13 08:55:45;;;;;;;5.22;3.60;;;;;;;3.52;84.03;101643.50;1780934;79;27606;-73
2021/04/13 08:58:29;;;;;;;6.95;3.37;;;;;;;3.61;84.15;101634.86;1769940;78;26079;-74
2021/04/13 09:00:58;;;;;;;4.03;2.72;;;;;;;3.72;84.52;101641.52;1779671;79;25728;-73
2021/04/13 09:03:30;;;;;;;7.08;4.22;;;;;;;3.76;83.72;101646.43;1790795;78;25848;-74
2021/04/13 09:06:14;;;;;;;5.78;2.80;;;;;;;3.78;83.72;101640.56;1741376;81;26146;-74
2021/04/13 09:09:11;;;;;;;5.33;3.30;;;;;;;3.83;83.78;101637.53;1701688;82;27650;-73
2021/04/13 09:12:19;;;;;;;6.42;3.15;;;;;;;3.99;83.87;101641.17;1851251;75;25703;-73
2021/04/13 09:15:09;;;;;;;7.80;3.80;;;;;;;4.00;84.15;101637.07;1810496;78;26280;-73
2021/04/13 09:17:58;;;;;;;4.65;3.50;;;;;;;4.11;83.56;101640.20;1799903;78;28382;-73
2021/04/13 09:20:46;;;;;;;7.03;3.30;;;;;;;4.17;83.16;101638.43;1745340;80;26143;-73
2021/04/13 09:23:39;;;;;;;5.97;3.25;;;;;;;4.18;83.57;101618.88;1776944;80;25709;-74
2021/04/13 09:26:32;;;;;;;4.65;3.42;;;;;;;4.25;83.94;101623.60;1747379;80;25822;-73
2021/04/13 09:29:01;;;;;;;5.80;3.45;;;;;;;4.36;84.07;101622.23;1719095;81;26177;-74
2021/04/13 09:31:44;;;;;;;5.83;3.62;;;;;;;4.42;82.80;101615.14;1694568;81;28537;-73
2021/04/13 09:34:34;;;;;;;4.20;2.75;;;;;;;4.48;83.29;101619.11;1762993;80;26438;-74
2021/04/13 09:37:20;;;;;;;8.93;3.12;;;;;;;4.53;81.94;101618.27;1727521;82;32683;-74
2021/04/13 09:40:10;;;;;;;6.00;3.52;;;;;;;4.56;82.81;101616.20;1711124;81;25807;-75
2021/04/13 09:43:17;;;;;;;5.10;3.35;;;;;;;4.66;82.27;101622.44;1717111;80;25874;-74
2021/04/13 09:46:14;;;;;;;5.62;3.40;;;;;;;4.75;82.50;101620.03;1723570;81;28288;-73
2021/04/13 09:49:23;;;;;;;5.47;2.95;;;;;;;4.75;81.02;101616.87;1722102;81;26306;-73
2021/04/13 09:52:19;;;;;;;4.87;2.90;;;;;;;4.77;81.14;101612.28;1716925;82;26550;-74
2021/04/13 09:55:01;;;;;;;6.05;3.10;;;;;;;4.89;81.91;101613.10;1725447;81;25839;-74
2021/04/13 09:58:08;;;;;;;6.08;2.67;;;;;;;5.02;81.60;101607.14;1693528;82;25818;-73
2021/04/13 10:00:52;;;;;;;6.33;3.40;;;;;;;5.06;79.63;101606.77;1724747;81;28464;-74
2021/04/13 10:03:34;;;;;;;6.03;3.20;;;;;;;5.05;79.33;101606.87;1703234;81;26392;-74
2021/04/13 10:06:02;;;;;;;2.87;2.27;;;;;;;5.09;78.75;101597.71;1703385;83;25900;-73
2021/04/13 10:08:36;;;;;;;3.50;2.77;;;;;;;5.07;77.74;101595.16;1695979;83;26053;-74
2021/04/13 10:11:34;;;;;;;6.92;2.72;;;;;;;5.09;78.58;101594.55;1701894;81;25751;-74
2021/04/13 10:14:40;;;;;;;3.92;2.27;;;;;;;5.10;77.09;101591.41;1696656;83;28274;-74
2021/04/13 10:17:25;;;;;;;5.10;3.15;;;;;;;5.12;78.07;101595.63;1704323;82;25814;-73
2021/04/13 10:20:22;;;;;;;3.40;2.45;;;;;;;5.18;77.86;101597.77;1721561;81;25749;-74
2021/04/13 10:23:23;;;;;;;4.12;2.77;;;;;;;5.22;77.60;101597.02;1727077;81;25801;-73
2021/04/13 10:26:28;;;;;;;3.70;2.50;;;;;;;5.31;77.58;101604.23;1701981;81;25819;-73
2021/04/13 10:29:48;;;;;;;3.92;2.27;;;;;;;5.35;76.25;101599.86;1706462;82;27537;-73
2021/04/13 10:32:48;;;;;;;3.58;2.37;;;;;;;5.28;74.92;101605.83;1716264;82;25878;-74
2021/04/13 10:36:06;;;;;;;4.30;2.37;;;;;;;5.24;75.67;101603.05;1736140;80;25939;-74
2021/04/13 10:39:05;;;;;;;2.98;2.17;;;;;;;5.34;76.99;101601.33;1739565;80;26154;-73
2021/04/13 10:42:04;;;;;;;5.25;3.33;;;;;;;5.47;75.99;101608.11;1733251;81;26609;-73
2021/04/13 10:44:40;;;;;;;4.47;2.77;;;;;;;5.53;76.10;101599.28;1703913;83;27408;-74
2021/04/13 10:47:46;;;;;;;5.65;2.80;;;;;;;5.59;75.08;101600.08;1724100;82;26505;-73
2021/04/13 10:50:37;;;;;;;9.65;2.58;;;;;;;5.60;74.31;101595.98;1747160;80;25754;-73
2021/04/13 10:53:38;;;;;;;3.10;2.17;;;;;;;5.59;74.36;101593.44;1730236;82;25824;-74
2021/04/13 10:56:40;;;;;;;5.22;2.40;;;;;;;5.64;74.42;101587.26;1756073;80;25792;-73
2021/04/13 10:59:42;;;;;;;4.80;2.45;;;;;;;5.75;74.02;101580.54;1738285;81;27535;-74
2021/04/13 11:02:46;;;;;;;4.00;2.62;;;;;;;5.78;74.54;101584.25;1724755;80;25810;-74
2021/04/13 11:05:41;;;;;;;3.80;2.70;;;;;;;5.84;73.99;101581.94;1743402;81;26456;-74
2021/04/13 11:08:22;;;;;;;4.20;2.83;;;;;;;5.92;74.52;101575.45;1731941;80;25840;-74
2021/04/13 11:11:28;;;;;;;6.60;3.17;;;;;;;6.09;74.29;101579.33;1728266;80;25825;-74
2021/04/13 11:14:38;;;;;;;4.90;2.47;;;;;;;6.16;73.04;101576.47;1679985;83;28913;-73
2021/04/13 11:17:37;;;;;;;5.33;2.80;;;;;;;6.15;71.26;101573.47;1668514;82;26431;-74
2021/04/13 11:20:27;;;;;;;6.70;3.00;;;;;;;6.17;72.26;101580.83;1680666;82;25738;-73
2021/04/13 11:23:26;;;;;;;3.42;2.33;;;;;;;6.22;71.85;101576.77;1688112;83;26171;-73
2021/04/13 11:26:19;;;;;;;4.60;2.45;;;;;;;6.22;70.03;101575.44;1661311;84;26451;-74
2021/04/13 11:29:23;;;;;;;6.03;2.83;;;;;;;6.23;70.02;101570.48;1678664;83;27557;-74
2021/04/13 11:32:28;;;;;;;6.08;2.60;;;;;;;6.23;70.21;101565.65;1678927;83;25807;-74
2021/04/13 11:35:20;;;;;;;4.47;3.20;;;;;;;6.29;69.89;101573.08;1678351;82;25910;-74
2021/04/13 11:38:23;;;;;;;3.35;2.77;;;;;;;6.38;69.68;101561.63;1703349;82;26235;-74
2021/04/13 11:41:20;;;;;;;5.33;3.30;;;;;;;6.45;70.42;101568.10;1639308;86;26246;-74
2021/04/13 11:44:00;;;;;;;4.70;2.72;;;;;;;6.59;68.72;101561.52;1620559;86;27360;-74
2021/04/13 11:46:52;;;;;;;5.70;3.12;;;;;;;6.71;67.29;101553.78;1844057;77;25752;-73
2021/04/13 11:49:37;;;;;;;6.87;2.85;;;;;;;6.67;67.99;101561.19;1774623;80;25806;-73
2021/04/13 11:52:12;;;;;;;6.40;3.20;;;;;;;6.74;68.00;101561.00;1736807;80;28579;-74
2021/04/13 11:54:55;;;;;;;7.30;3.17;;;;;;;6.85;68.05;101557.36;1712997;80;26359;-73
2021/04/13 11:57:35;;;;;;;7.53;3.45;;;;;;;6.97;66.75;101565.58;1770718;80;25744;-73
2021/04/13 12:00:20;;;;;;;4.53;3.55;;;;;;;7.02;64.69;101565.98;1759647;80;25890;-74
2021/04/13 12:03:08;;;;;;;6.90;3.37;;;;;;;6.99;64.59;101564.95;1759829;80;25685;-74
2021/04/13 12:05:45;;;;;;;7.08;2.87;;;;;;;7.00;64.99;101560.80;1768066;80;27534;-74
2021/04/13 12:08:32;;;;;;;8.30;3.75;;;;;;;6.97;63.59;101558.41;1762841;80;25793;-74
2021/04/13 12:11:03;;;;;;;3.95;2.83;;;;;;;6.97;63.57;101562.92;1771518;80;25797;-74
2021/04/13 12:13:42;;;;;;;5.67;3.00;;;;;;;6.93;64.79;101554.83;1736045;80;26076;-74
2021/04/13 12:16:17;;;;;;;3.72;2.67;;;;;;;6.97;65.83;101557.08;1712031;80;26177;-74
2021/04/13 12:18:52;;;;;;;7.22;3.67;;;;;;;7.06;64.87;101555.39;1730849;80;27264;-73
2021/04/13 12:21:28;;;;;;;4.90;3.30;;;;;;;7.11;63.85;101557.16;1696117;83;25835;-73
2021/04/13 12:23:58;;;;;;;8.28;3.17;;;;;;;7.12;64.94;101558.00;1681567;82;25745;-73
2021/04/13 12:26:43;;;;;;;8.65;3.62;;;;;;;7.20;63.79;101550.13;1684454;81;26434;-74
2021/04/13 12:29:33;;;;;;;3.65;2.83;;;;;;;7.24;64.51;101551.05;1691031;83;25913;-74
2021/04/13 12:32:18;;;;;;;7.65;3.42;;;;;;;7.30;64.71;101545.14;1685611;83;27555;-73
2021/04/13 12:34:58;;;;;;;9.28;3.50;;;;;;;7.37;64.59;101534.27;1692643;82;26002;-73
2021/04/13 12:37:46;;;;;;;7.75;3.72;;;;;;;7.39;64.94;101536.78;1721763;82;26529;-73
2021/04/13 12:40:23;;;;;;;6.45;3.85;;;;;;;7.45;63.37;101538.38;1680990;83;26170;-74
2021/04/13 12:43:05;;;;;;;5.03;3.75;;;;;;;7.48;64.90;101534.11;1709815;83;26056;-74
2021/04/13 12:45:50;;;;;;;7.08;3.45;;;;;;;7.54;64.54;101528.20;1659051;83;27569;-73
2021/04/13 12:48:32;;;;;;;6.03;3.90;;;;;;;7.58;63.58;101526.06;1699279;81;26192;-74
2021/04/13 12:51:04;;;;;;;7.25;3.58;;;;;;;7.64;64.31;101521.00;1692122;83;25933;-74
2021/04/13 12:53:32;;;;;;;7.17;4.20;;;;;;;7.75;64.38;101525.31;1713359;83;25435;-74
2021/04/13 12:56:16;;;;;;;7.58;4.47;;;;;;;7.74;63.14;101517.80;1669819;82;25822;-74
2021/04/13 12:58:44;;;;;;;9.58;4.30;;;;;;;7.73;63.37;101512.61;1708695;83;27553;-74
2021/04/13 13:01:22;;;;;;;4.95;3.87;;;;;;;7.64;62.40;101507.66;1707913;81;25760;-74